Time;durP1;ratioP1;P1;durP2;ratioP2;P2;SDS_P1;SDS_P2;PMS_P1;PMS_P2;Temp;Humidity;BMP_temperature;BMP_pressure;BME280_temperature;BME280_humidity;BME280_pressure;Samples;Min_cycle;Max_cycle;Signal;HPM_P1;HPM_P2
2024/01/26 00:01:37;;;;;;;32.67;11.65;;;3.20;99.90;;;;;;4948323;28;20019;-64
2024/01/26 00:04:03;;;;;;;29.80;12.02;;;3.20;99.90;;;;;;4950971;28;20092;-63
2024/01/26 00:06:29;;;;;;;40.78;13.77;;;3.20;99.90;;;;;;4950315;28;20026;-63
2024/01/26 00:08:54;;;;;;;35.53;11.98;;;3.20;99.90;;;;;;4952516;28;20097;-64
2024/01/26 00:11:20;;;;;;;41.15;12.73;;;3.30;99.90;;;;;;4944313;28;20057;-63
2024/01/26 00:13:46;;;;;;;36.40;14.88;;;3.30;99.90;;;;;;4946619;28;20038;-63
2024/01/26 00:16:12;;;;;;;26.17;14.70;;;3.30;99.90;;;;;;4946605;28;20039;-63
2024/01/26 00:18:40;;;;;;;36.53;13.02;;;3.30;99.90;;;;;;4944382;28;20028;-63
2024/01/26 00:21:06;;;;;;;34.60;14.00;;;3.30;99.90;;;;;;4947116;28;20035;-64
2024/01/26 00:23:32;;;;;;;35.88;12.98;;;3.30;99.90;;;;;;4951709;28;20031;-64
2024/01/26 00:25:58;;;;;;;39.88;13.52;;;3.30;99.90;;;;;;4947621;28;20030;-63
2024/01/26 00:28:24;;;;;;;28.25;13.30;;;3.40;99.90;;;;;;4948635;28;20672;-64
2024/01/26 00:30:49;;;;;;;42.10;13.48;;;3.40;99.90;;;;;;4947522;28;20495;-64
2024/01/26 00:33:15;;;;;;;36.67;14.00;;;3.40;99.90;;;;;;4949252;28;20031;-63
2024/01/26 00:35:40;;;;;;;35.92;12.50;;;3.40;99.90;;;;;;4947073;28;20032;-64
2024/01/26 00:38:06;;;;;;;30.95;12.30;;;3.50;99.90;;;;;;4950096;28;20042;-64
2024/01/26 00:40:32;;;;;;;36.20;12.18;;;3.40;99.90;;;;;;4947631;28;20020;-63
2024/01/26 00:42:57;;;;;;;24.15;11.98;;;3.40;99.90;;;;;;4947170;28;20028;-63
2024/01/26 00:45:23;;;;;;;28.65;13.43;;;3.40;99.90;;;;;;4948131;28;20039;-63
2024/01/26 00:47:48;;;;;;;33.28;13.00;;;3.40;99.90;;;;;;4947798;28;20046;-63
2024/01/26 00:50:14;;;;;;;40.88;13.32;;;3.50;99.90;;;;;;4949146;28;20043;-63
2024/01/26 00:52:40;;;;;;;26.88;11.95;;;3.50;99.90;;;;;;4954070;28;20020;-63
2024/01/26 00:55:06;;;;;;;42.85;13.07;;;3.50;99.90;;;;;;4943575;28;20480;-63
2024/01/26 00:57:31;;;;;;;31.45;12.23;;;3.50;99.90;;;;;;4950945;28;20395;-63
2024/01/26 00:59:59;;;;;;;32.00;14.73;;;3.50;99.90;;;;;;4933036;28;20024;-63
2024/01/26 01:02:25;;;;;;;26.67;13.57;;;3.50;99.90;;;;;;4923973;29;20028;-64
2024/01/26 01:04:51;;;;;;;31.35;14.65;;;3.60;99.90;;;;;;4931214;29;20043;-64
2024/01/26 01:07:16;;;;;;;38.05;13.23;;;3.60;99.90;;;;;;4941473;28;20570;-63
2024/01/26 01:09:42;;;;;;;24.40;13.05;;;3.60;99.90;;;;;;4946934;28;20035;-64
2024/01/26 01:12:08;;;;;;;24.85;14.15;;;3.60;99.90;;;;;;4947546;28;20043;-65
2024/01/26 01:14:36;;;;;;;32.97;14.43;;;3.60;99.90;;;;;;4946688;28;20027;-64
2024/01/26 01:17:04;;;;;;;32.03;12.95;;;3.60;99.90;;;;;;4949657;28;20019;-64
2024/01/26 01:19:30;;;;;;;34.33;13.90;;;3.60;99.90;;;;;;4946670;28;20007;-62
2024/01/26 01:21:56;;;;;;;38.95;13.80;;;3.60;99.90;;;;;;4932511;28;20040;-64
2024/01/26 01:24:21;;;;;;;26.45;13.48;;;3.60;99.90;;;;;;4930686;28;20035;-63
2024/01/26 01:26:47;;;;;;;37.03;13.98;;;3.60;99.90;;;;;;4935318;28;20105;-63
2024/01/26 01:29:13;;;;;;;39.50;16.88;;;3.60;99.90;;;;;;4945680;28;20060;-62
2024/01/26 01:31:38;;;;;;;36.00;13.45;;;3.70;99.90;;;;;;4943724;28;20055;-63
2024/01/26 01:34:05;;;;;;;41.60;11.75;;;3.60;99.90;;;;;;4947947;28;20419;-63
2024/01/26 01:36:30;;;;;;;26.52;12.02;;;3.70;99.90;;;;;;4941085;28;20028;-63
2024/01/26 01:38:56;;;;;;;33.35;14.38;;;3.70;99.90;;;;;;4950546;28;20038;-64
2024/01/26 01:41:22;;;;;;;35.08;14.32;;;3.70;99.90;;;;;;4949919;28;20047;-63
2024/01/26 01:43:55;;;;;;;24.55;13.48;;;3.70;99.90;;;;;;4952350;28;20023;-63
2024/01/26 01:46:21;;;;;;;41.45;17.23;;;3.70;99.90;;;;;;4951018;28;20039;-63
2024/01/26 01:48:47;;;;;;;59.42;18.75;;;3.70;99.90;;;;;;4951359;28;20685;-63
2024/01/26 01:51:14;;;;;;;37.20;14.30;;;3.70;99.90;;;;;;4950574;28;20039;-64
2024/01/26 01:53:41;;;;;;;37.65;12.68;;;3.70;99.90;;;;;;4952527;28;20035;-63
2024/01/26 01:56:10;;;;;;;32.10;11.13;;;3.80;99.90;;;;;;4948139;28;20093;-63
2024/01/26 01:58:38;;;;;;;38.47;12.73;;;3.80;99.90;;;;;;4952462;28;20502;-63
2024/01/26 02:01:04;;;;;;;28.17;11.18;;;3.80;99.90;;;;;;4952276;28;20503;-64
2024/01/26 02:03:30;;;;;;;29.05;11.40;;;3.70;99.90;;;;;;4954266;28;20019;-63
2024/01/26 02:05:56;;;;;;;30.60;12.80;;;3.80;99.90;;;;;;4953668;28;20035;-62
2024/01/26 02:08:22;;;;;;;29.42;14.25;;;3.80;99.90;;;;;;4950792;28;20112;-64
2024/01/26 02:10:47;;;;;;;42.65;13.05;;;3.80;99.90;;;;;;4947930;28;20043;-64
2024/01/26 02:13:13;;;;;;;43.28;14.30;;;3.80;99.90;;;;;;4950419;28;20032;-63
2024/01/26 02:15:39;;;;;;;31.27;12.82;;;3.80;99.90;;;;;;4951666;28;20027;-63
2024/01/26 02:18:06;;;;;;;34.05;11.85;;;3.80;99.90;;;;;;4951587;28;20034;-64
2024/01/26 02:20:31;;;;;;;44.53;14.50;;;3.80;99.90;;;;;;4953261;28;20023;-63
2024/01/26 02:22:57;;;;;;;43.20;13.52;;;3.80;99.90;;;;;;4952460;28;20028;-64
2024/01/26 02:25:23;;;;;;;46.53;13.70;;;3.80;99.90;;;;;;4955169;28;20458;-63
2024/01/26 02:27:51;;;;;;;46.17;15.75;;;3.90;99.90;;;;;;4949118;28;20040;-64
2024/01/26 02:30:17;;;;;;;35.40;13.20;;;3.90;99.90;;;;;;4948813;28;20130;-64
2024/01/26 02:32:43;;;;;;;38.17;12.75;;;3.90;99.90;;;;;;4947770;28;20477;-63
2024/01/26 02:35:09;;;;;;;75.57;24.83;;;3.90;99.90;;;;;;4943453;28;20059;-63
2024/01/26 02:37:35;;;;;;;54.38;18.02;;;3.90;99.90;;;;;;4948086;28;20027;-63
2024/01/26 02:40:00;;;;;;;57.00;20.13;;;3.90;99.90;;;;;;4950038;28;20849;-65
2024/01/26 02:42:26;;;;;;;57.50;18.55;;;3.90;99.90;;;;;;4945114;28;20035;-64
2024/01/26 02:44:51;;;;;;;53.30;20.60;;;3.90;99.90;;;;;;4943975;28;20043;-64
2024/01/26 02:47:17;;;;;;;62.83;17.25;;;3.90;99.90;;;;;;4951290;28;20039;-63
2024/01/26 02:49:43;;;;;;;61.60;17.95;;;3.90;99.90;;;;;;4950976;28;20031;-63
2024/01/26 02:52:09;;;;;;;61.08;17.50;;;4.00;99.90;;;;;;4947473;28;20055;-63
2024/01/26 02:54:35;;;;;;;69.72;19.98;;;4.00;99.90;;;;;;4949354;28;20062;-63
2024/01/26 02:57:00;;;;;;;60.20;17.20;;;4.00;99.90;;;;;;4944708;28;20375;-63
2024/01/26 02:59:26;;;;;;;65.20;20.52;;;4.00;99.90;;;;;;4945599;28;20558;-63
2024/01/26 03:01:52;;;;;;;40.35;15.20;;;4.00;99.90;;;;;;4949617;28;20031;-64
2024/01/26 03:04:19;;;;;;;31.73;12.20;;;4.00;99.90;;;;;;4949186;28;20119;-63
2024/01/26 03:06:45;;;;;;;38.22;11.30;;;4.00;99.90;;;;;;4947453;28;20023;-63
2024/01/26 03:09:11;;;;;;;41.35;13.05;;;4.00;99.90;;;;;;4950754;28;20034;-63
2024/01/26 03:11:38;;;;;;;23.85;11.32;;;4.00;99.90;;;;;;4945716;28;20045;-63
2024/01/26 03:14:05;;;;;;;57.53;11.48;;;4.00;99.90;;;;;;4949434;28;20142;-64
2024/01/26 03:16:32;;;;;;;26.08;11.98;;;4.00;99.90;;;;;;4950671;28;20736;-63
2024/01/26 03:18:58;;;;;;;46.45;13.57;;;4.00;99.90;;;;;;4953217;28;20361;-63
2024/01/26 03:21:24;;;;;;;33.90;12.35;;;4.00;99.90;;;;;;4950015;28;20039;-63
2024/01/26 03:23:49;;;;;;;38.45;13.88;;;4.00;99.90;;;;;;4947125;28;20036;-64
2024/01/26 03:26:15;;;;;;;39.38;12.10;;;4.00;99.90;;;;;;4951456;28;20450;-63
2024/01/26 03:28:40;;;;;;;29.10;12.13;;;4.10;99.90;;;;;;4951993;28;20101;-63
2024/01/26 03:31:06;;;;;;;28.58;11.07;;;4.00;99.90;;;;;;4950908;28;20043;-62
2024/01/26 03:33:32;;;;;;;35.97;11.98;;;4.00;99.90;;;;;;4954475;28;20063;-64
2024/01/26 03:35:57;;;;;;;39.58;12.48;;;4.00;99.90;;;;;;4947687;28;20047;-64
2024/01/26 03:38:23;;;;;;;41.03;11.48;;;4.10;99.90;;;;;;4947056;28;20499;-63
2024/01/26 03:40:48;;;;;;;25.17;9.45;;;4.10;99.90;;;;;;4947299;29;20031;-64
2024/01/26 03:43:14;;;;;;;38.85;11.52;;;4.10;99.90;;;;;;4949907;28;20031;-64
2024/01/26 03:45:40;;;;;;;26.58;10.70;;;4.10;99.90;;;;;;4947205;28;20582;-63
2024/01/26 03:48:06;;;;;;;34.95;12.27;;;4.10;99.90;;;;;;4948948;28;20059;-63
2024/01/26 03:50:31;;;;;;;36.53;11.02;;;4.10;99.90;;;;;;4946958;28;20039;-63
2024/01/26 03:52:57;;;;;;;24.38;10.10;;;4.20;99.90;;;;;;4950710;28;20045;-65
2024/01/26 03:55:23;;;;;;;35.40;10.15;;;4.20;99.90;;;;;;4950043;28;20027;-63
2024/01/26 03:57:49;;;;;;;26.67;9.27;;;4.20;99.90;;;;;;4954808;28;20035;-64
2024/01/26 04:00:15;;;;;;;27.67;9.90;;;4.20;99.90;;;;;;4951550;28;20037;-63
2024/01/26 04:02:40;;;;;;;29.30;10.50;;;4.20;99.90;;;;;;4951816;28;20023;-62
2024/01/26 04:05:06;;;;;;;32.30;11.75;;;4.20;99.90;;;;;;4947562;28;20506;-63
2024/01/26 04:07:32;;;;;;;30.13;9.82;;;4.20;99.90;;;;;;4946192;28;20030;-63
2024/01/26 04:09:58;;;;;;;28.55;10.65;;;4.30;99.90;;;;;;4946005;28;20464;-63
2024/01/26 04:12:24;;;;;;;31.70;10.70;;;4.30;99.90;;;;;;4945562;28;20063;-63
2024/01/26 04:14:49;;;;;;;40.97;9.40;;;4.30;99.90;;;;;;4946682;28;20027;-63
2024/01/26 04:17:15;;;;;;;37.70;12.38;;;4.30;99.90;;;;;;4947870;28;20114;-63
2024/01/26 04:19:41;;;;;;;23.08;10.43;;;4.30;99.90;;;;;;4947244;28;20102;-63
2024/01/26 04:22:06;;;;;;;36.78;10.07;;;4.30;99.90;;;;;;4943910;28;20047;-64
2024/01/26 04:24:34;;;;;;;32.30;9.82;;;4.30;99.90;;;;;;4946732;28;20043;-63
2024/01/26 04:27:00;;;;;;;29.05;11.30;;;4.30;99.90;;;;;;4947572;28;20031;-63
2024/01/26 04:29:26;;;;;;;25.80;9.10;;;4.30;99.90;;;;;;4949330;28;20034;-64
2024/01/26 04:31:52;;;;;;;36.25;11.00;;;4.30;99.90;;;;;;4948919;28;20031;-63
2024/01/26 04:34:18;;;;;;;22.83;10.70;;;4.30;99.90;;;;;;4948624;28;20742;-64
2024/01/26 04:36:47;;;;;;;32.00;11.35;;;4.30;99.90;;;;;;4946076;28;20503;-63
2024/01/26 04:39:13;;;;;;;27.67;10.88;;;4.30;99.90;;;;;;4949691;28;20054;-67
2024/01/26 04:41:39;;;;;;;27.10;10.23;;;4.30;99.90;;;;;;4947668;28;20027;-65
2024/01/26 04:44:05;;;;;;;37.13;11.70;;;4.30;99.90;;;;;;4946580;28;20050;-66
2024/01/26 04:46:31;;;;;;;43.40;10.63;;;4.30;99.90;;;;;;4947850;28;20426;-66
2024/01/26 04:48:56;;;;;;;38.00;11.45;;;4.30;99.90;;;;;;4948773;28;20030;-66
2024/01/26 04:51:22;;;;;;;31.33;10.43;;;4.30;99.90;;;;;;4946773;28;20090;-66
2024/01/26 04:53:48;;;;;;;22.98;10.02;;;4.40;99.90;;;;;;4951309;28;20150;-65
2024/01/26 04:56:13;;;;;;;24.95;9.98;;;4.40;99.90;;;;;;4954215;28;20471;-67
2024/01/26 04:58:39;;;;;;;21.08;10.00;;;4.40;99.90;;;;;;4946888;28;20027;-66
2024/01/26 05:01:04;;;;;;;33.17;10.00;;;4.40;99.90;;;;;;4946814;28;20039;-63
2024/01/26 05:03:30;;;;;;;36.35;10.60;;;4.40;99.90;;;;;;4944999;28;20347;-63
2024/01/26 05:05:56;;;;;;;32.08;11.82;;;4.40;99.90;;;;;;4951031;28;20122;-64
2024/01/26 05:08:21;;;;;;;34.78;10.00;;;4.50;99.90;;;;;;4952957;28;20034;-63
2024/01/26 05:10:47;;;;;;;32.72;11.52;;;4.50;99.90;;;;;;4952690;28;20484;-65
2024/01/26 05:13:13;;;;;;;32.28;11.50;;;4.50;99.90;;;;;;4946966;28;20166;-64
2024/01/26 05:15:38;;;;;;;28.63;11.60;;;4.50;99.90;;;;;;4948019;28;20034;-63
2024/01/26 05:18:04;;;;;;;38.10;12.35;;;4.50;99.90;;;;;;4951415;28;20023;-64
2024/01/26 05:20:30;;;;;;;30.73;13.70;;;4.50;99.90;;;;;;4953875;28;20558;-64
2024/01/26 05:22:55;;;;;;;34.05;11.73;;;4.50;99.90;;;;;;4952504;28;20123;-64
2024/01/26 05:25:21;;;;;;;30.20;11.43;;;4.40;99.90;;;;;;4950669;28;20021;-64
2024/01/26 05:27:47;;;;;;;34.30;11.90;;;4.40;99.90;;;;;;4948441;28;20031;-63
2024/01/26 05:30:13;;;;;;;31.65;9.93;;;4.40;99.90;;;;;;4951779;28;20035;-68
2024/01/26 05:32:38;;;;;;;36.05;11.25;;;4.40;99.90;;;;;;4960574;28;20023;-63
2024/01/26 05:35:04;;;;;;;45.63;13.85;;;4.40;99.90;;;;;;4960605;28;20034;-63
2024/01/26 05:37:30;;;;;;;31.33;13.57;;;4.50;99.90;;;;;;4954470;28;20017;-63
2024/01/26 05:39:56;;;;;;;43.95;17.05;;;4.50;99.90;;;;;;4944235;28;20027;-62
2024/01/26 05:42:21;;;;;;;42.38;16.20;;;4.50;99.90;;;;;;4945440;28;20595;-63
2024/01/26 05:44:47;;;;;;;35.42;15.10;;;4.50;99.90;;;;;;4950114;28;20035;-63
2024/01/26 05:47:12;;;;;;;36.45;12.35;;;4.50;99.90;;;;;;4947296;28;20184;-63
2024/01/26 05:49:38;;;;;;;33.35;9.77;;;4.50;99.90;;;;;;4950516;28;20027;-63
2024/01/26 05:52:04;;;;;;;32.92;11.65;;;4.60;99.90;;;;;;4950875;28;20571;-64
2024/01/26 05:54:30;;;;;;;23.35;9.88;;;4.60;99.90;;;;;;4948997;28;20066;-63
2024/01/26 05:56:55;;;;;;;41.17;9.27;;;4.60;99.90;;;;;;4950487;28;20062;-64
2024/01/26 05:59:21;;;;;;;39.92;14.07;;;4.60;99.90;;;;;;4949518;28;20034;-64
2024/01/26 06:01:47;;;;;;;30.90;15.30;;;4.70;99.90;;;;;;4949739;29;20024;-65
2024/01/26 06:04:12;;;;;;;35.20;13.02;;;4.60;99.90;;;;;;4952213;28;20431;-64
2024/01/26 06:06:38;;;;;;;34.25;11.90;;;4.70;99.90;;;;;;4946994;28;20055;-64
2024/01/26 06:09:03;;;;;;;25.42;10.63;;;4.70;99.90;;;;;;4954989;28;20031;-63
2024/01/26 06:11:29;;;;;;;29.25;10.60;;;4.70;99.90;;;;;;4950972;28;20046;-65
2024/01/26 06:13:55;;;;;;;26.45;10.20;;;4.70;99.90;;;;;;4946234;28;20075;-65
2024/01/26 06:16:20;;;;;;;34.67;10.93;;;4.70;99.90;;;;;;4949570;28;20496;-66
2024/01/26 06:18:46;;;;;;;31.40;10.07;;;4.70;99.90;;;;;;4950354;28;20040;-65
2024/01/26 06:21:12;;;;;;;22.42;9.70;;;4.70;99.90;;;;;;4949281;28;20023;-65
2024/01/26 06:23:38;;;;;;;27.88;11.43;;;4.80;99.90;;;;;;4948707;28;20035;-63
2024/01/26 06:26:04;;;;;;;31.25;12.80;;;4.80;99.90;;;;;;4952143;28;20058;-64
2024/01/26 06:28:30;;;;;;;28.80;12.40;;;4.80;99.90;;;;;;4945861;28;20482;-64
2024/01/26 06:30:55;;;;;;;25.77;10.45;;;4.80;99.90;;;;;;4945594;28;20118;-64
2024/01/26 06:33:21;;;;;;;32.53;12.13;;;4.80;99.90;;;;;;4949782;28;20024;-65
2024/01/26 06:35:47;;;;;;;25.02;10.77;;;4.90;99.90;;;;;;4947939;28;20040;-64
2024/01/26 06:38:12;;;;;;;25.33;10.48;;;4.90;99.90;;;;;;4945857;28;20019;-64
2024/01/26 06:40:39;;;;;;;29.05;14.18;;;4.90;99.90;;;;;;4945772;28;20082;-65
2024/01/26 06:43:07;;;;;;;32.85;16.15;;;4.90;99.90;;;;;;4946810;28;20031;-65
2024/01/26 06:45:33;;;;;;;29.55;14.55;;;4.90;99.90;;;;;;4949594;28;20042;-64
2024/01/26 06:47:59;;;;;;;32.95;12.57;;;4.90;99.90;;;;;;4951049;28;20039;-65
2024/01/26 06:50:25;;;;;;;34.88;12.15;;;5.00;99.90;;;;;;4950334;28;20035;-64
2024/01/26 06:52:51;;;;;;;24.00;11.27;;;5.00;99.90;;;;;;4951419;28;20054;-64
2024/01/26 06:55:16;;;;;;;41.53;13.48;;;5.00;99.90;;;;;;4950768;28;20134;-65
2024/01/26 06:57:42;;;;;;;28.15;11.07;;;5.00;99.90;;;;;;4949767;28;20041;-64
2024/01/26 07:00:09;;;;;;;20.75;11.32;;;5.10;99.90;;;;;;4952486;28;20052;-63
2024/01/26 07:02:35;;;;;;;33.92;11.02;;;5.10;99.90;;;;;;4946682;28;20023;-64
2024/01/26 07:05:00;;;;;;;20.30;10.60;;;5.10;99.90;;;;;;4946358;29;20130;-65
2024/01/26 07:07:26;;;;;;;24.20;11.25;;;5.10;99.90;;;;;;4946573;28;20606;-64
2024/01/26 07:09:52;;;;;;;19.80;10.15;;;5.10;99.90;;;;;;4945625;28;20047;-64
2024/01/26 07:12:17;;;;;;;22.27;9.23;;;5.20;99.90;;;;;;4948225;28;20039;-63
2024/01/26 07:14:43;;;;;;;21.65;9.40;;;5.20;99.90;;;;;;4945246;28;20479;-64
2024/01/26 07:17:08;;;;;;;21.25;10.27;;;5.20;99.90;;;;;;4945021;28;20039;-64
2024/01/26 07:19:34;;;;;;;25.95;10.05;;;5.20;99.90;;;;;;4945671;28;20519;-64
2024/01/26 07:22:00;;;;;;;28.80;10.77;;;5.30;99.90;;;;;;4944812;28;20039;-65
2024/01/26 07:24:25;;;;;;;28.80;11.23;;;5.30;99.90;;;;;;4946600;28;20028;-65
2024/01/26 07:26:53;;;;;;;18.25;10.98;;;5.30;99.90;;;;;;4944150;28;20044;-65
2024/01/26 07:29:18;;;;;;;32.83;11.75;;;5.30;99.90;;;;;;4944263;28;20037;-64
2024/01/26 07:31:46;;;;;;;24.02;9.70;;;5.40;99.90;;;;;;4949025;28;20027;-64
2024/01/26 07:34:12;;;;;;;25.35;9.30;;;5.40;99.90;;;;;;4945603;28;20031;-64
2024/01/26 07:36:37;;;;;;;19.58;9.05;;;5.40;99.90;;;;;;4948611;28;20057;-64
2024/01/26 07:39:05;;;;;;;19.88;8.40;;;5.40;99.90;;;;;;4949376;28;20507;-63
2024/01/26 07:41:31;;;;;;;19.60;8.05;;;5.50;99.90;;;;;;4946642;28;20027;-64
2024/01/26 07:43:56;;;;;;;23.35;9.32;;;5.50;99.90;;;;;;4945536;28;20046;-65
2024/01/26 07:46:22;;;;;;;24.20;8.52;;;5.50;99.90;;;;;;4945911;28;20479;-64
2024/01/26 07:48:47;;;;;;;18.50;8.13;;;5.50;99.90;;;;;;4946324;28;20051;-63
2024/01/26 07:51:13;;;;;;;27.35;9.75;;;5.60;99.90;;;;;;4945449;28;20042;-65
2024/01/26 07:53:39;;;;;;;19.58;8.98;;;5.60;99.90;;;;;;4948310;28;20081;-64
2024/01/26 07:56:06;;;;;;;18.58;8.18;;;5.60;99.90;;;;;;4944335;28;20377;-66
2024/01/26 07:58:31;;;;;;;12.32;8.73;;;5.70;99.90;;;;;;4946368;28;20051;-63
2024/01/26 08:00:57;;;;;;;30.10;8.88;;;5.70;99.90;;;;;;4945892;28;20036;-63
2024/01/26 08:03:22;;;;;;;23.48;8.57;;;5.80;99.90;;;;;;4947042;28;20039;-65
2024/01/26 08:05:48;;;;;;;30.40;9.38;;;5.80;99.90;;;;;;4946582;28;20114;-65
2024/01/26 08:08:14;;;;;;;20.85;7.70;;;6.00;99.90;;;;;;4946199;28;20035;-65
2024/01/26 08:10:39;;;;;;;17.85;7.63;;;6.00;99.90;;;;;;4941486;28;20031;-63
2024/01/26 08:13:05;;;;;;;16.52;7.85;;;6.10;99.90;;;;;;4949068;28;20490;-64
2024/01/26 08:15:30;;;;;;;24.80;8.07;;;6.20;99.90;;;;;;4945683;28;20032;-64
2024/01/26 08:17:56;;;;;;;15.43;8.48;;;6.20;99.90;;;;;;4942016;28;20043;-64
2024/01/26 08:20:22;;;;;;;21.52;7.57;;;6.30;99.90;;;;;;4940783;28;20071;-65
2024/01/26 08:22:47;;;;;;;13.88;6.57;;;6.40;99.90;;;;;;4947289;28;20074;-64
2024/01/26 08:25:13;;;;;;;16.17;7.15;;;6.50;99.90;;;;;;4946468;28;20027;-64
2024/01/26 08:27:39;;;;;;;9.63;6.30;;;6.60;99.90;;;;;;4945891;28;20050;-64
2024/01/26 08:30:05;;;;;;;9.80;5.75;;;6.70;99.90;;;;;;4944664;28;20071;-64
2024/01/26 08:32:31;;;;;;;15.85;6.85;;;6.80;99.90;;;;;;4949551;28;20042;-65
2024/01/26 08:34:56;;;;;;;10.50;6.55;;;6.90;99.90;;;;;;4947143;28;20130;-63
2024/01/26 08:37:23;;;;;;;8.98;6.22;;;7.00;99.90;;;;;;4951177;28;20019;-64
2024/01/26 08:39:48;;;;;;;7.15;5.55;;;7.00;99.90;;;;;;4941957;28;20070;-63
2024/01/26 08:42:14;;;;;;;5.90;4.80;;;7.10;99.90;;;;;;4941977;28;20055;-64
2024/01/26 08:44:40;;;;;;;5.55;4.43;;;7.10;99.90;;;;;;4940737;28;20089;-63
2024/01/26 08:47:06;;;;;;;5.95;4.32;;;7.30;99.90;;;;;;4949487;28;20069;-64
2024/01/26 08:49:32;;;;;;;7.97;5.13;;;7.40;99.90;;;;;;4953586;28;20059;-64
2024/01/26 08:52:01;;;;;;;13.95;8.80;;;7.50;99.90;;;;;;4953934;28;20054;-64
2024/01/26 08:54:26;;;;;;;26.70;13.65;;;7.60;99.90;;;;;;4945535;28;20034;-63
2024/01/26 08:56:52;;;;;;;9.50;4.22;;;7.60;99.90;;;;;;4951915;28;20130;-63
2024/01/26 08:59:18;;;;;;;6.50;4.38;;;7.60;99.90;;;;;;4951836;28;20027;-63
2024/01/26 09:01:43;;;;;;;4.55;3.65;;;7.80;99.90;;;;;;4953785;28;20479;-63
2024/01/26 09:04:09;;;;;;;5.00;2.88;;;7.90;99.90;;;;;;4951158;28;20039;-64
2024/01/26 09:06:35;;;;;;;5.63;3.67;;;8.10;99.90;;;;;;4950284;28;20127;-64
2024/01/26 09:09:02;;;;;;;4.38;3.28;;;8.20;99.90;;;;;;4952912;28;20031;-64
2024/01/26 09:11:28;;;;;;;4.60;2.50;;;8.30;99.90;;;;;;4946258;28;20046;-64
2024/01/26 09:13:53;;;;;;;3.70;2.45;;;8.30;99.90;;;;;;4951207;28;20023;-63
2024/01/26 09:16:19;;;;;;;3.90;2.90;;;8.30;99.90;;;;;;4950668;28;20066;-63
2024/01/26 09:18:45;;;;;;;3.33;2.45;;;8.40;99.90;;;;;;4950764;28;20111;-63
2024/01/26 09:21:10;;;;;;;3.88;2.75;;;8.40;99.90;;;;;;4946477;28;20055;-63
2024/01/26 09:23:37;;;;;;;5.22;4.20;;;8.40;99.90;;;;;;4950240;28;20434;-63
2024/01/26 09:26:11;;;;;;;5.00;2.75;;;8.50;99.90;;;;;;4949908;28;20023;-63
2024/01/26 09:28:37;;;;;;;2.83;1.70;;;8.50;99.90;;;;;;4953640;28;20027;-63
2024/01/26 09:31:04;;;;;;;2.95;1.80;;;8.60;99.90;;;;;;4951300;28;20505;-65
2024/01/26 09:33:29;;;;;;;5.80;2.67;;;8.60;99.90;;;;;;4949807;28;20066;-63
2024/01/26 09:35:56;;;;;;;3.17;2.25;;;8.60;99.90;;;;;;4949078;28;20027;-64
2024/01/26 09:38:25;;;;;;;4.20;2.30;;;8.60;99.90;;;;;;4951844;28;20020;-63
2024/01/26 09:40:51;;;;;;;4.03;2.47;;;8.60;99.90;;;;;;4954979;28;20023;-62
2024/01/26 09:43:16;;;;;;;2.72;2.53;;;8.60;99.90;;;;;;4951031;28;20094;-63
2024/01/26 09:45:43;;;;;;;2.70;2.50;;;8.60;99.90;;;;;;4950177;28;20035;-63
2024/01/26 09:48:09;;;;;;;7.72;3.30;;;8.60;99.90;;;;;;4941463;28;20774;-64
2024/01/26 09:50:36;;;;;;;2.33;2.08;;;8.60;99.90;;;;;;4951293;28;20369;-63
2024/01/26 09:53:05;;;;;;;3.08;2.88;;;8.60;99.90;;;;;;4949345;28;20415;-63
2024/01/26 09:55:34;;;;;;;3.13;2.40;;;8.60;99.90;;;;;;4947639;28;20451;-63
2024/01/26 09:57:59;;;;;;;3.33;2.63;;;8.60;99.90;;;;;;4949075;28;20043;-64
2024/01/26 10:00:26;;;;;;;2.40;2.00;;;8.60;99.90;;;;;;4950106;28;20715;-64
2024/01/26 10:02:52;;;;;;;4.60;2.20;;;8.60;99.90;;;;;;4949748;28;20039;-63
2024/01/26 10:05:18;;;;;;;3.33;2.42;;;8.60;99.90;;;;;;4952606;28;20514;-63
2024/01/26 10:07:47;;;;;;;3.00;2.42;;;8.60;99.90;;;;;;4953643;28;20041;-63
2024/01/26 10:10:13;;;;;;;3.30;2.42;;;8.60;99.90;;;;;;4953527;28;20067;-63
2024/01/26 10:12:41;;;;;;;3.03;2.22;;;8.60;99.90;;;;;;4948819;28;20027;-64
2024/01/26 10:15:09;;;;;;;3.28;2.97;;;8.60;99.90;;;;;;4945840;28;20085;-64
2024/01/26 10:17:35;;;;;;;3.33;2.70;;;8.60;99.90;;;;;;4943890;28;20616;-64
2024/01/26 10:20:15;;;;;;;2.92;2.72;;;8.60;99.90;;;;;;4948006;28;20075;-64
2024/01/26 10:22:44;;;;;;;3.50;2.58;;;8.60;99.90;;;;;;4949458;28;20114;-63
2024/01/26 10:25:10;;;;;;;3.50;2.33;;;8.70;99.90;;;;;;4953397;28;20043;-63
2024/01/26 10:27:36;;;;;;;2.47;2.28;;;8.70;99.90;;;;;;4951334;28;20035;-63
2024/01/26 10:30:02;;;;;;;3.10;2.53;;;8.80;99.90;;;;;;4952439;28;20448;-64
2024/01/26 10:32:29;;;;;;;2.75;2.13;;;8.80;99.90;;;;;;4950685;28;20103;-64
2024/01/26 10:34:58;;;;;;;4.10;2.08;;;8.80;99.90;;;;;;4952469;28;20649;-63
2024/01/26 10:37:29;;;;;;;2.92;1.75;;;8.80;99.90;;;;;;4950973;28;20019;-64
2024/01/26 10:39:56;;;;;;;1.70;1.60;;;8.80;99.90;;;;;;4946582;28;20040;-64
2024/01/26 10:42:23;;;;;;;2.47;1.90;;;8.70;99.90;;;;;;4964214;28;20118;-64
2024/01/26 10:44:50;;;;;;;2.05;1.75;;;8.70;99.90;;;;;;4955599;28;20480;-63
2024/01/26 10:47:20;;;;;;;2.60;1.52;;;8.70;99.90;;;;;;4948105;28;20034;-64
2024/01/26 10:49:50;;;;;;;2.20;2.00;;;8.70;99.90;;;;;;4951608;28;20019;-66
2024/01/26 10:52:19;;;;;;;2.65;2.22;;;8.70;99.90;;;;;;4949085;28;20332;-63
2024/01/26 10:54:47;;;;;;;3.00;2.35;;;8.80;99.90;;;;;;4954206;28;20066;-64
2024/01/26 10:57:13;;;;;;;3.35;2.17;;;8.90;99.90;;;;;;4947972;28;20123;-63
2024/01/26 10:59:43;;;;;;;4.88;1.90;;;8.90;99.90;;;;;;4959470;28;20028;-64
2024/01/26 11:02:16;;;;;;;2.78;1.77;;;8.90;99.90;;;;;;4949313;28;20015;-64
2024/01/26 11:04:44;;;;;;;2.80;1.77;;;8.90;99.90;;;;;;4950314;28;20031;-64
2024/01/26 11:07:10;;;;;;;2.20;1.60;;;9.00;99.90;;;;;;4946681;28;20079;-62
2024/01/26 11:09:41;;;;;;;2.95;1.50;;;8.90;99.90;;;;;;4946307;28;20409;-63
2024/01/26 11:12:18;;;;;;;1.67;1.50;;;9.00;99.90;;;;;;4948216;28;20035;-64
2024/01/26 11:14:44;;;;;;;1.60;1.45;;;9.00;99.90;;;;;;4954193;28;20356;-63
2024/01/26 11:17:10;;;;;;;2.10;1.20;;;9.00;99.90;;;;;;4946152;28;20026;-63
2024/01/26 11:19:37;;;;;;;1.65;1.45;;;9.00;99.90;;;;;;4927677;29;20051;-64
2024/01/26 11:22:06;;;;;;;1.55;1.40;;;9.00;99.90;;;;;;4949423;28;20031;-64
2024/01/26 11:24:33;;;;;;;1.17;1.08;;;9.00;99.90;;;;;;4949065;28;20375;-64
2024/01/26 11:27:01;;;;;;;1.77;1.20;;;9.00;99.90;;;;;;4951079;28;20034;-64
2024/01/26 11:29:33;;;;;;;1.98;1.10;;;9.00;99.90;;;;;;4950267;28;20323;-65
2024/01/26 11:32:00;;;;;;;1.55;1.27;;;8.90;99.90;;;;;;4952111;28;20518;-64
2024/01/26 11:34:26;;;;;;;1.33;1.20;;;8.90;99.90;;;;;;4952528;28;20023;-64
2024/01/26 11:37:14;;;;;;;1.15;1.02;;;8.90;99.90;;;;;;4952165;28;20034;-65
2024/01/26 11:39:40;;;;;;;1.48;1.00;;;8.80;99.90;;;;;;4944841;28;20055;-64
2024/01/26 11:42:11;;;;;;;2.95;1.90;;;8.80;99.90;;;;;;4947413;28;20387;-65
2024/01/26 11:44:41;;;;;;;2.23;1.30;;;8.80;99.90;;;;;;4949786;28;20063;-65
2024/01/26 11:47:10;;;;;;;1.90;1.40;;;8.70;99.90;;;;;;4944708;28;20747;-65
2024/01/26 11:49:38;;;;;;;3.25;1.20;;;8.70;99.90;;;;;;4948277;28;20030;-65
2024/01/26 11:52:04;;;;;;;1.88;1.27;;;8.70;99.90;;;;;;4950167;28;20062;-65
2024/01/26 11:54:37;;;;;;;1.75;1.42;;;8.60;99.90;;;;;;4950656;28;20051;-65
2024/01/26 11:57:03;;;;;;;3.60;2.08;;;8.60;99.90;;;;;;4952541;28;20522;-64
2024/01/26 11:59:29;;;;;;;2.50;1.35;;;8.70;99.90;;;;;;4951355;28;20023;-65
2024/01/26 12:01:57;;;;;;;1.60;1.30;;;8.70;99.90;;;;;;4948743;28;20701;-65
2024/01/26 12:04:26;;;;;;;1.60;1.40;;;8.70;99.90;;;;;;4949257;28;20043;-65
2024/01/26 12:06:52;;;;;;;1.50;1.10;;;8.70;99.90;;;;;;4950542;28;20423;-65
2024/01/26 12:09:18;;;;;;;1.73;1.30;;;8.70;99.90;;;;;;4954540;28;20050;-65
2024/01/26 12:11:44;;;;;;;1.88;1.42;;;8.60;99.90;;;;;;4954177;28;20039;-65
2024/01/26 12:14:10;;;;;;;1.75;1.45;;;8.60;99.90;;;;;;4948368;28;20047;-65
2024/01/26 12:16:35;;;;;;;2.42;1.30;;;8.70;99.90;;;;;;4948903;28;20066;-65
2024/01/26 12:19:01;;;;;;;2.10;1.55;;;8.70;99.90;;;;;;4946517;28;20483;-65
2024/01/26 12:21:28;;;;;;;2.92;2.28;;;8.70;99.90;;;;;;4948846;28;20434;-65
2024/01/26 12:23:54;;;;;;;2.35;1.40;;;8.70;99.90;;;;;;4946906;28;20082;-65
2024/01/26 12:26:19;;;;;;;1.90;1.70;;;8.70;99.90;;;;;;4946060;28;20056;-65
2024/01/26 12:28:46;;;;;;;1.60;1.48;;;8.70;99.90;;;;;;4944786;28;20030;-66
2024/01/26 12:31:12;;;;;;;2.70;1.67;;;8.80;99.90;;;;;;4945106;28;20094;-65
2024/01/26 12:33:37;;;;;;;1.23;1.10;;;8.80;99.90;;;;;;4947631;28;20031;-64
2024/01/26 12:36:09;;;;;;;1.58;1.00;;;8.70;99.90;;;;;;4949695;28;20023;-67
2024/01/26 12:38:34;;;;;;;1.40;1.10;;;8.80;99.90;;;;;;4951199;28;20027;-65
2024/01/26 12:41:00;;;;;;;1.63;1.13;;;8.70;99.90;;;;;;4948345;28;20474;-65